sensor_id;sensor_type;location;lat;lon;timestamp;P1;durP1;ratioP1;P2;durP2;ratioP2
40290;SDS011;26000;48.304;13.626;2023-03-13T00:01:28;22.52;;;16.83;;
40290;SDS011;26000;48.304;13.626;2023-03-13T00:03:56;22.20;;;16.67;;
40290;SDS011;26000;48.304;13.626;2023-03-13T00:06:22;21.80;;;16.05;;
40290;SDS011;26000;48.304;13.626;2023-03-13T00:08:56;22.42;;;16.60;;
40290;SDS011;26000;48.304;13.626;2023-03-13T00:11:21;20.88;;;15.75;;
40290;SDS011;26000;48.304;13.626;2023-03-13T00:13:47;22.83;;;16.38;;
40290;SDS011;26000;48.304;13.626;2023-03-13T00:16:17;22.75;;;17.00;;
40290;SDS011;26000;48.304;13.626;2023-03-13T00:18:43;21.40;;;16.52;;
40290;SDS011;26000;48.304;13.626;2023-03-13T00:21:11;23.92;;;16.48;;
40290;SDS011;26000;48.304;13.626;2023-03-13T00:23:37;21.50;;;16.17;;
40290;SDS011;26000;48.304;13.626;2023-03-13T00:26:07;22.67;;;16.05;;
40290;SDS011;26000;48.304;13.626;2023-03-13T00:28:35;21.30;;;15.57;;
40290;SDS011;26000;48.304;13.626;2023-03-13T00:31:03;23.02;;;15.90;;
40290;SDS011;26000;48.304;13.626;2023-03-13T00:33:37;22.48;;;15.68;;
40290;SDS011;26000;48.304;13.626;2023-03-13T00:36:06;21.23;;;15.48;;
40290;SDS011;26000;48.304;13.626;2023-03-13T00:38:36;19.30;;;14.45;;
40290;SDS011;26000;48.304;13.626;2023-03-13T00:41:12;19.00;;;14.27;;
40290;SDS011;26000;48.304;13.626;2023-03-13T00:43:40;19.05;;;13.43;;
40290;SDS011;26000;48.304;13.626;2023-03-13T00:46:07;19.30;;;14.65;;
40290;SDS011;26000;48.304;13.626;2023-03-13T00:48:34;20.52;;;15.05;;
40290;SDS011;26000;48.304;13.626;2023-03-13T00:51:00;18.60;;;14.48;;
40290;SDS011;26000;48.304;13.626;2023-03-13T00:53:26;17.92;;;13.75;;
40290;SDS011;26000;48.304;13.626;2023-03-13T00:58:19;17.25;;;12.95;;
40290;SDS011;26000;48.304;13.626;2023-03-13T01:00:44;15.63;;;12.18;;
40290;SDS011;26000;48.304;13.626;2023-03-13T01:03:10;16.70;;;12.85;;
40290;SDS011;26000;48.304;13.626;2023-03-13T01:05:36;16.40;;;12.68;;
40290;SDS011;26000;48.304;13.626;2023-03-13T01:08:01;17.20;;;12.18;;
40290;SDS011;26000;48.304;13.626;2023-03-13T01:10:27;15.95;;;12.68;;
40290;SDS011;26000;48.304;13.626;2023-03-13T01:12:53;17.95;;;13.30;;
40290;SDS011;26000;48.304;13.626;2023-03-13T01:15:18;17.13;;;12.90;;
40290;SDS011;26000;48.304;13.626;2023-03-13T01:17:44;15.95;;;12.30;;
40290;SDS011;26000;48.304;13.626;2023-03-13T01:20:10;13.98;;;11.35;;
40290;SDS011;26000;48.304;13.626;2023-03-13T01:22:37;14.65;;;11.38;;
40290;SDS011;26000;48.304;13.626;2023-03-13T01:25:03;17.65;;;11.32;;
40290;SDS011;26000;48.304;13.626;2023-03-13T01:27:29;14.32;;;10.88;;
40290;SDS011;26000;48.304;13.626;2023-03-13T01:29:55;15.23;;;10.27;;
40290;SDS011;26000;48.304;13.626;2023-03-13T01:32:20;12.52;;;9.95;;
40290;SDS011;26000;48.304;13.626;2023-03-13T01:34:46;12.20;;;9.85;;
40290;SDS011;26000;48.304;13.626;2023-03-13T01:37:12;12.93;;;9.60;;
40290;SDS011;26000;48.304;13.626;2023-03-13T01:39:37;13.50;;;9.95;;
40290;SDS011;26000;48.304;13.626;2023-03-13T01:42:03;11.27;;;8.90;;
40290;SDS011;26000;48.304;13.626;2023-03-13T01:44:29;14.32;;;10.35;;
40290;SDS011;26000;48.304;13.626;2023-03-13T01:47:13;12.40;;;9.70;;
40290;SDS011;26000;48.304;13.626;2023-03-13T01:49:39;11.98;;;9.32;;
40290;SDS011;26000;48.304;13.626;2023-03-13T01:52:24;13.45;;;10.15;;
40290;SDS011;26000;48.304;13.626;2023-03-13T01:54:54;15.32;;;10.18;;
40290;SDS011;26000;48.304;13.626;2023-03-13T01:57:34;15.30;;;10.48;;
40290;SDS011;26000;48.304;13.626;2023-03-13T02:00:12;14.52;;;10.48;;
40290;SDS011;26000;48.304;13.626;2023-03-13T02:02:42;13.68;;;11.07;;
40290;SDS011;26000;48.304;13.626;2023-03-13T02:05:10;13.05;;;10.57;;
40290;SDS011;26000;48.304;13.626;2023-03-13T02:07:40;15.55;;;11.23;;
40290;SDS011;26000;48.304;13.626;2023-03-13T02:10:10;16.88;;;12.10;;
40290;SDS011;26000;48.304;13.626;2023-03-13T02:12:39;15.38;;;11.40;;
40290;SDS011;26000;48.304;13.626;2023-03-13T02:15:08;15.20;;;12.15;;
40290;SDS011;26000;48.304;13.626;2023-03-13T02:17:40;16.65;;;11.82;;
40290;SDS011;26000;48.304;13.626;2023-03-13T02:20:07;15.88;;;11.48;;
40290;SDS011;26000;48.304;13.626;2023-03-13T02:27:49;14.80;;;10.88;;
40290;SDS011;26000;48.304;13.626;2023-03-13T02:30:16;13.23;;;10.27;;
40290;SDS011;26000;48.304;13.626;2023-03-13T02:32:42;12.43;;;10.13;;
40290;SDS011;26000;48.304;13.626;2023-03-13T02:35:10;14.02;;;10.32;;
40290;SDS011;26000;48.304;13.626;2023-03-13T02:37:39;13.27;;;9.25;;
40290;SDS011;26000;48.304;13.626;2023-03-13T02:40:09;13.05;;;9.23;;
40290;SDS011;26000;48.304;13.626;2023-03-13T02:42:38;10.48;;;8.68;;
40290;SDS011;26000;48.304;13.626;2023-03-13T02:45:07;12.55;;;9.10;;
40290;SDS011;26000;48.304;13.626;2023-03-13T02:47:33;10.32;;;8.45;;
40290;SDS011;26000;48.304;13.626;2023-03-13T02:49:59;11.43;;;9.43;;
40290;SDS011;26000;48.304;13.626;2023-03-13T02:52:28;11.27;;;8.90;;
40290;SDS011;26000;48.304;13.626;2023-03-13T02:54:58;14.05;;;9.32;;
40290;SDS011;26000;48.304;13.626;2023-03-13T02:57:28;11.85;;;9.13;;
40290;SDS011;26000;48.304;13.626;2023-03-13T02:59:55;13.35;;;9.05;;
40290;SDS011;26000;48.304;13.626;2023-03-13T03:02:21;11.80;;;9.18;;
40290;SDS011;26000;48.304;13.626;2023-03-13T03:04:47;11.23;;;8.50;;
40290;SDS011;26000;48.304;13.626;2023-03-13T03:07:12;14.32;;;8.82;;
40290;SDS011;26000;48.304;13.626;2023-03-13T03:09:38;12.73;;;8.95;;
40290;SDS011;26000;48.304;13.626;2023-03-13T03:12:04;12.88;;;9.27;;
40290;SDS011;26000;48.304;13.626;2023-03-13T03:14:30;11.00;;;9.05;;
40290;SDS011;26000;48.304;13.626;2023-03-13T03:16:55;11.85;;;9.00;;
40290;SDS011;26000;48.304;13.626;2023-03-13T03:19:21;12.27;;;8.20;;
40290;SDS011;26000;48.304;13.626;2023-03-13T03:21:46;11.07;;;8.07;;
40290;SDS011;26000;48.304;13.626;2023-03-13T03:24:13;10.10;;;7.20;;
40290;SDS011;26000;48.304;13.626;2023-03-13T03:26:39;9.73;;;7.50;;
40290;SDS011;26000;48.304;13.626;2023-03-13T03:29:05;9.55;;;7.68;;
40290;SDS011;26000;48.304;13.626;2023-03-13T03:31:32;11.43;;;7.65;;
40290;SDS011;26000;48.304;13.626;2023-03-13T03:33:58;13.18;;;8.70;;
40290;SDS011;26000;48.304;13.626;2023-03-13T03:36:23;12.65;;;8.65;;
40290;SDS011;26000;48.304;13.626;2023-03-13T03:38:49;12.52;;;8.98;;
40290;SDS011;26000;48.304;13.626;2023-03-13T03:41:15;10.35;;;8.00;;
40290;SDS011;26000;48.304;13.626;2023-03-13T03:43:41;13.57;;;7.85;;
40290;SDS011;26000;48.304;13.626;2023-03-13T03:46:07;11.63;;;8.10;;
40290;SDS011;26000;48.304;13.626;2023-03-13T03:48:33;12.27;;;8.18;;
40290;SDS011;26000;48.304;13.626;2023-03-13T03:50:59;9.43;;;7.18;;
40290;SDS011;26000;48.304;13.626;2023-03-13T03:53:25;9.90;;;6.85;;
40290;SDS011;26000;48.304;13.626;2023-03-13T03:55:50;9.23;;;6.82;;
40290;SDS011;26000;48.304;13.626;2023-03-13T03:58:16;8.57;;;6.63;;
40290;SDS011;26000;48.304;13.626;2023-03-13T04:00:43;8.40;;;6.50;;
40290;SDS011;26000;48.304;13.626;2023-03-13T04:03:09;8.32;;;6.43;;
40290;SDS011;26000;48.304;13.626;2023-03-13T04:05:36;10.32;;;7.22;;
40290;SDS011;26000;48.304;13.626;2023-03-13T04:08:02;9.65;;;7.00;;
40290;SDS011;26000;48.304;13.626;2023-03-13T04:10:27;9.95;;;7.13;;
40290;SDS011;26000;48.304;13.626;2023-03-13T04:12:53;11.98;;;7.88;;
40290;SDS011;26000;48.304;13.626;2023-03-13T04:15:18;13.73;;;8.80;;
40290;SDS011;26000;48.304;13.626;2023-03-13T04:17:44;14.95;;;10.07;;
40290;SDS011;26000;48.304;13.626;2023-03-13T04:20:10;17.30;;;10.88;;
40290;SDS011;26000;48.304;13.626;2023-03-13T04:22:37;14.10;;;9.55;;
40290;SDS011;26000;48.304;13.626;2023-03-13T04:25:03;14.38;;;9.68;;
40290;SDS011;26000;48.304;13.626;2023-03-13T04:27:29;14.68;;;10.40;;
40290;SDS011;26000;48.304;13.626;2023-03-13T04:29:56;16.65;;;11.25;;
40290;SDS011;26000;48.304;13.626;2023-03-13T04:32:21;15.65;;;11.48;;
40290;SDS011;26000;48.304;13.626;2023-03-13T04:34:47;13.60;;;11.05;;
40290;SDS011;26000;48.304;13.626;2023-03-13T04:37:12;16.17;;;11.35;;
40290;SDS011;26000;48.304;13.626;2023-03-13T04:39:38;15.18;;;10.38;;
40290;SDS011;26000;48.304;13.626;2023-03-13T04:42:03;16.35;;;11.98;;
40290;SDS011;26000;48.304;13.626;2023-03-13T04:44:29;14.10;;;10.65;;
40290;SDS011;26000;48.304;13.626;2023-03-13T04:46:55;15.70;;;11.13;;
40290;SDS011;26000;48.304;13.626;2023-03-13T04:49:20;13.98;;;10.75;;
40290;SDS011;26000;48.304;13.626;2023-03-13T04:51:46;15.25;;;11.43;;
40290;SDS011;26000;48.304;13.626;2023-03-13T04:54:11;15.98;;;11.50;;
40290;SDS011;26000;48.304;13.626;2023-03-13T04:56:37;14.13;;;10.63;;
40290;SDS011;26000;48.304;13.626;2023-03-13T04:59:03;14.48;;;10.43;;
40290;SDS011;26000;48.304;13.626;2023-03-13T05:01:29;15.00;;;10.77;;
40290;SDS011;26000;48.304;13.626;2023-03-13T05:03:55;14.95;;;10.65;;
40290;SDS011;26000;48.304;13.626;2023-03-13T05:06:20;14.15;;;10.38;;
40290;SDS011;26000;48.304;13.626;2023-03-13T05:08:46;13.85;;;10.32;;
40290;SDS011;26000;48.304;13.626;2023-03-13T05:11:11;14.75;;;10.15;;
40290;SDS011;26000;48.304;13.626;2023-03-13T05:13:37;15.25;;;10.50;;
40290;SDS011;26000;48.304;13.626;2023-03-13T05:16:03;15.68;;;10.77;;
40290;SDS011;26000;48.304;13.626;2023-03-13T05:18:29;14.15;;;10.27;;
40290;SDS011;26000;48.304;13.626;2023-03-13T05:20:54;12.75;;;10.32;;
40290;SDS011;26000;48.304;13.626;2023-03-13T05:23:20;12.77;;;10.30;;
40290;SDS011;26000;48.304;13.626;2023-03-13T05:25:46;16.23;;;9.80;;
40290;SDS011;26000;48.304;13.626;2023-03-13T05:28:11;13.48;;;9.23;;
40290;SDS011;26000;48.304;13.626;2023-03-13T05:30:37;17.73;;;10.18;;
40290;SDS011;26000;48.304;13.626;2023-03-13T05:33:02;12.60;;;9.18;;
40290;SDS011;26000;48.304;13.626;2023-03-13T05:35:28;14.02;;;9.20;;
40290;SDS011;26000;48.304;13.626;2023-03-13T05:37:54;12.93;;;9.55;;
40290;SDS011;26000;48.304;13.626;2023-03-13T05:40:19;14.13;;;10.45;;
40290;SDS011;26000;48.304;13.626;2023-03-13T05:42:45;20.20;;;13.80;;
40290;SDS011;26000;48.304;13.626;2023-03-13T05:45:11;21.73;;;14.55;;
40290;SDS011;26000;48.304;13.626;2023-03-13T05:47:37;22.35;;;16.30;;
40290;SDS011;26000;48.304;13.626;2023-03-13T05:50:04;25.75;;;17.50;;
40290;SDS011;26000;48.304;13.626;2023-03-13T05:52:30;24.23;;;16.90;;
40290;SDS011;26000;48.304;13.626;2023-03-13T05:54:56;23.70;;;16.35;;
40290;SDS011;26000;48.304;13.626;2023-03-13T05:57:22;23.23;;;16.48;;
40290;SDS011;26000;48.304;13.626;2023-03-13T05:59:48;24.05;;;16.95;;
40290;SDS011;26000;48.304;13.626;2023-03-13T06:02:14;30.30;;;20.05;;
40290;SDS011;26000;48.304;13.626;2023-03-13T06:04:39;26.33;;;17.33;;
40290;SDS011;26000;48.304;13.626;2023-03-13T06:07:05;20.58;;;14.27;;
40290;SDS011;26000;48.304;13.626;2023-03-13T06:09:31;26.50;;;16.77;;
40290;SDS011;26000;48.304;13.626;2023-03-13T06:11:56;17.85;;;11.98;;
40290;SDS011;26000;48.304;13.626;2023-03-13T06:14:22;15.45;;;10.88;;
40290;SDS011;26000;48.304;13.626;2023-03-13T06:16:47;16.73;;;12.27;;
40290;SDS011;26000;48.304;13.626;2023-03-13T06:19:13;16.05;;;11.50;;
40290;SDS011;26000;48.304;13.626;2023-03-13T06:21:39;19.67;;;13.15;;
40290;SDS011;26000;48.304;13.626;2023-03-13T06:24:05;20.02;;;14.05;;
40290;SDS011;26000;48.304;13.626;2023-03-13T06:26:30;28.35;;;16.25;;
40290;SDS011;26000;48.304;13.626;2023-03-13T06:28:56;23.42;;;15.23;;
40290;SDS011;26000;48.304;13.626;2023-03-13T06:31:22;29.73;;;16.80;;
40290;SDS011;26000;48.304;13.626;2023-03-13T06:33:51;22.70;;;13.52;;
40290;SDS011;26000;48.304;13.626;2023-03-13T06:36:18;21.58;;;14.48;;
40290;SDS011;26000;48.304;13.626;2023-03-13T06:38:44;25.20;;;16.25;;
40290;SDS011;26000;48.304;13.626;2023-03-13T06:41:09;20.52;;;14.98;;
40290;SDS011;26000;48.304;13.626;2023-03-13T06:43:35;23.95;;;12.70;;
40290;SDS011;26000;48.304;13.626;2023-03-13T06:46:03;18.48;;;12.02;;
40290;SDS011;26000;48.304;13.626;2023-03-13T06:48:29;17.20;;;12.15;;
40290;SDS011;26000;48.304;13.626;2023-03-13T06:50:55;20.55;;;12.43;;
40290;SDS011;26000;48.304;13.626;2023-03-13T06:53:20;19.60;;;13.40;;
40290;SDS011;26000;48.304;13.626;2023-03-13T06:55:46;20.85;;;14.93;;
40290;SDS011;26000;48.304;13.626;2023-03-13T06:58:13;22.38;;;15.85;;
40290;SDS011;26000;48.304;13.626;2023-03-13T07:00:39;27.35;;;19.10;;
40290;SDS011;26000;48.304;13.626;2023-03-13T07:03:06;22.75;;;17.27;;
40290;SDS011;26000;48.304;13.626;2023-03-13T07:05:32;26.23;;;18.77;;
40290;SDS011;26000;48.304;13.626;2023-03-13T07:07:58;31.17;;;21.55;;
40290;SDS011;26000;48.304;13.626;2023-03-13T07:10:23;34.13;;;26.20;;
40290;SDS011;26000;48.304;13.626;2023-03-13T07:12:49;28.42;;;22.17;;
40290;SDS011;26000;48.304;13.626;2023-03-13T07:15:14;29.08;;;21.45;;
40290;SDS011;26000;48.304;13.626;2023-03-13T07:17:40;32.50;;;23.75;;
40290;SDS011;26000;48.304;13.626;2023-03-13T07:20:06;30.40;;;23.08;;
40290;SDS011;26000;48.304;13.626;2023-03-13T07:22:34;30.02;;;22.33;;
40290;SDS011;26000;48.304;13.626;2023-03-13T07:25:00;31.20;;;22.38;;
40290;SDS011;26000;48.304;13.626;2023-03-13T07:27:26;53.17;;;38.38;;
40290;SDS011;26000;48.304;13.626;2023-03-13T07:29:51;37.40;;;27.35;;
40290;SDS011;26000;48.304;13.626;2023-03-13T07:32:17;35.75;;;25.65;;
40290;SDS011;26000;48.304;13.626;2023-03-13T07:34:43;32.22;;;23.88;;
40290;SDS011;26000;48.304;13.626;2023-03-13T07:37:09;34.50;;;25.08;;
40290;SDS011;26000;48.304;13.626;2023-03-13T07:39:38;36.55;;;27.10;;
40290;SDS011;26000;48.304;13.626;2023-03-13T07:42:05;35.63;;;26.67;;
40290;SDS011;26000;48.304;13.626;2023-03-13T07:44:30;37.67;;;27.10;;
40290;SDS011;26000;48.304;13.626;2023-03-13T07:46:59;33.97;;;25.33;;
40290;SDS011;26000;48.304;13.626;2023-03-13T07:49:25;33.42;;;25.35;;
40290;SDS011;26000;48.304;13.626;2023-03-13T07:51:51;32.75;;;24.83;;
40290;SDS011;26000;48.304;13.626;2023-03-13T07:54:16;33.58;;;25.23;;
40290;SDS011;26000;48.304;13.626;2023-03-13T07:56:42;34.78;;;24.88;;
40290;SDS011;26000;48.304;13.626;2023-03-13T07:59:07;31.60;;;23.50;;
40290;SDS011;26000;48.304;13.626;2023-03-13T08:01:34;31.75;;;23.90;;
40290;SDS011;26000;48.304;13.626;2023-03-13T08:03:59;34.92;;;23.83;;
40290;SDS011;26000;48.304;13.626;2023-03-13T08:06:25;34.22;;;23.52;;
40290;SDS011;26000;48.304;13.626;2023-03-13T08:08:55;33.40;;;23.23;;
40290;SDS011;26000;48.304;13.626;2023-03-13T08:11:22;32.10;;;24.13;;
40290;SDS011;26000;48.304;13.626;2023-03-13T08:13:49;30.48;;;22.73;;
40290;SDS011;26000;48.304;13.626;2023-03-13T08:16:16;33.58;;;24.02;;
40290;SDS011;26000;48.304;13.626;2023-03-13T08:18:47;32.03;;;24.13;;
40290;SDS011;26000;48.304;13.626;2023-03-13T08:21:16;33.70;;;24.83;;
40290;SDS011;26000;48.304;13.626;2023-03-13T08:23:45;31.35;;;23.48;;
40290;SDS011;26000;48.304;13.626;2023-03-13T08:28:37;30.40;;;23.30;;
40290;SDS011;26000;48.304;13.626;2023-03-13T08:31:06;36.70;;;24.65;;
40290;SDS011;26000;48.304;13.626;2023-03-13T08:33:40;37.33;;;25.05;;
40290;SDS011;26000;48.304;13.626;2023-03-13T08:36:15;34.97;;;25.77;;
40290;SDS011;26000;48.304;13.626;2023-03-13T08:38:42;34.05;;;24.05;;
40290;SDS011;26000;48.304;13.626;2023-03-13T08:41:13;31.23;;;22.73;;
40290;SDS011;26000;48.304;13.626;2023-03-13T08:43:41;33.75;;;23.10;;
40290;SDS011;26000;48.304;13.626;2023-03-13T08:46:07;34.15;;;24.33;;
40290;SDS011;26000;48.304;13.626;2023-03-13T08:48:33;34.63;;;23.83;;
40290;SDS011;26000;48.304;13.626;2023-03-13T08:51:32;32.70;;;24.25;;
40290;SDS011;26000;48.304;13.626;2023-03-13T08:53:52;40.28;;;27.05;;
40290;SDS011;26000;48.304;13.626;2023-03-13T08:56:20;38.75;;;27.00;;
40290;SDS011;26000;48.304;13.626;2023-03-13T08:58:50;32.70;;;24.17;;
40290;SDS011;26000;48.304;13.626;2023-03-13T09:01:17;34.38;;;25.38;;
40290;SDS011;26000;48.304;13.626;2023-03-13T09:03:43;40.30;;;26.52;;
40290;SDS011;26000;48.304;13.626;2023-03-13T09:06:09;38.10;;;27.02;;
40290;SDS011;26000;48.304;13.626;2023-03-13T09:08:35;39.47;;;27.55;;
40290;SDS011;26000;48.304;13.626;2023-03-13T09:11:09;40.08;;;27.20;;
40290;SDS011;26000;48.304;13.626;2023-03-13T09:13:37;34.35;;;25.63;;
40290;SDS011;26000;48.304;13.626;2023-03-13T09:16:08;35.22;;;25.05;;
40290;SDS011;26000;48.304;13.626;2023-03-13T09:18:35;36.92;;;26.15;;
40290;SDS011;26000;48.304;13.626;2023-03-13T09:21:02;33.20;;;24.90;;
40290;SDS011;26000;48.304;13.626;2023-03-13T09:23:29;32.22;;;24.08;;
40290;SDS011;26000;48.304;13.626;2023-03-13T09:25:55;34.58;;;24.20;;
40290;SDS011;26000;48.304;13.626;2023-03-13T09:28:22;37.10;;;26.13;;
40290;SDS011;26000;48.304;13.626;2023-03-13T09:30:49;35.70;;;24.50;;
40290;SDS011;26000;48.304;13.626;2023-03-13T09:33:15;35.45;;;23.67;;
40290;SDS011;26000;48.304;13.626;2023-03-13T09:35:41;38.08;;;24.13;;
40290;SDS011;26000;48.304;13.626;2023-03-13T09:38:07;35.92;;;24.48;;
40290;SDS011;26000;48.304;13.626;2023-03-13T09:40:52;38.80;;;25.13;;
40290;SDS011;26000;48.304;13.626;2023-03-13T09:45:50;31.45;;;22.40;;
40290;SDS011;26000;48.304;13.626;2023-03-13T09:50:50;34.17;;;24.17;;
40290;SDS011;26000;48.304;13.626;2023-03-13T09:53:30;29.83;;;20.92;;
40290;SDS011;26000;48.304;13.626;2023-03-13T09:56:05;30.73;;;22.23;;
40290;SDS011;26000;48.304;13.626;2023-03-13T09:58:40;35.45;;;23.02;;
40290;SDS011;26000;48.304;13.626;2023-03-13T10:01:14;35.35;;;23.90;;
40290;SDS011;26000;48.304;13.626;2023-03-13T10:06:51;34.42;;;21.30;;
40290;SDS011;26000;48.304;13.626;2023-03-13T10:09:18;31.85;;;22.75;;
40290;SDS011;26000;48.304;13.626;2023-03-13T10:12:09;34.90;;;22.40;;
40290;SDS011;26000;48.304;13.626;2023-03-13T10:17:32;31.30;;;21.67;;
40290;SDS011;26000;48.304;13.626;2023-03-13T10:22:48;33.28;;;21.85;;
40290;SDS011;26000;48.304;13.626;2023-03-13T10:27:56;33.78;;;23.35;;
40290;SDS011;26000;48.304;13.626;2023-03-13T10:32:55;31.90;;;22.13;;
40290;SDS011;26000;48.304;13.626;2023-03-13T10:35:30;35.28;;;22.48;;
40290;SDS011;26000;48.304;13.626;2023-03-13T10:38:12;36.15;;;22.73;;
40290;SDS011;26000;48.304;13.626;2023-03-13T10:40:55;31.23;;;22.23;;
40290;SDS011;26000;48.304;13.626;2023-03-13T10:43:26;30.63;;;21.58;;
40290;SDS011;26000;48.304;13.626;2023-03-13T10:45:53;33.97;;;23.50;;
40290;SDS011;26000;48.304;13.626;2023-03-13T10:48:23;31.95;;;21.83;;
40290;SDS011;26000;48.304;13.626;2023-03-13T10:50:53;34.85;;;22.77;;
40290;SDS011;26000;48.304;13.626;2023-03-13T10:55:56;34.55;;;23.13;;
40290;SDS011;26000;48.304;13.626;2023-03-13T10:58:24;31.30;;;22.05;;
40290;SDS011;26000;48.304;13.626;2023-03-13T11:00:52;34.75;;;22.45;;
40290;SDS011;26000;48.304;13.626;2023-03-13T11:03:42;30.67;;;21.38;;
40290;SDS011;26000;48.304;13.626;2023-03-13T11:06:21;31.45;;;20.50;;
40290;SDS011;26000;48.304;13.626;2023-03-13T11:08:47;30.25;;;19.85;;
40290;SDS011;26000;48.304;13.626;2023-03-13T11:11:17;30.98;;;20.98;;
40290;SDS011;26000;48.304;13.626;2023-03-13T11:13:44;32.05;;;19.50;;
40290;SDS011;26000;48.304;13.626;2023-03-13T11:16:23;26.80;;;18.52;;
40290;SDS011;26000;48.304;13.626;2023-03-13T11:24:23;25.27;;;18.15;;
40290;SDS011;26000;48.304;13.626;2023-03-13T11:26:57;23.50;;;16.55;;
40290;SDS011;26000;48.304;13.626;2023-03-13T11:29:34;27.20;;;16.80;;
40290;SDS011;26000;48.304;13.626;2023-03-13T11:32:12;22.77;;;15.18;;
40290;SDS011;26000;48.304;13.626;2023-03-13T11:34:47;24.42;;;15.52;;
40290;SDS011;26000;48.304;13.626;2023-03-13T11:37:18;24.77;;;14.63;;
40290;SDS011;26000;48.304;13.626;2023-03-13T11:40:04;19.08;;;12.85;;
40290;SDS011;26000;48.304;13.626;2023-03-13T11:42:53;23.10;;;14.05;;
40290;SDS011;26000;48.304;13.626;2023-03-13T11:48:09;20.30;;;12.53;;
40290;SDS011;26000;48.304;13.626;2023-03-13T11:50:57;18.27;;;12.88;;
40290;SDS011;26000;48.304;13.626;2023-03-13T11:56:20;21.65;;;13.20;;
40290;SDS011;26000;48.304;13.626;2023-03-13T12:01:19;18.98;;;12.80;;
40290;SDS011;26000;48.304;13.626;2023-03-13T12:04:01;17.38;;;11.88;;
40290;SDS011;26000;48.304;13.626;2023-03-13T12:09:49;17.50;;;12.30;;
40290;SDS011;26000;48.304;13.626;2023-03-13T12:12:27;20.25;;;13.35;;
40290;SDS011;26000;48.304;13.626;2023-03-13T12:17:41;14.50;;;11.57;;
40290;SDS011;26000;48.304;13.626;2023-03-13T12:20:41;20.77;;;13.35;;
40290;SDS011;26000;48.304;13.626;2023-03-13T12:23:23;22.25;;;13.27;;
40290;SDS011;26000;48.304;13.626;2023-03-13T12:26:10;17.98;;;12.40;;
40290;SDS011;26000;48.304;13.626;2023-03-13T12:33:59;15.02;;;11.18;;
40290;SDS011;26000;48.304;13.626;2023-03-13T12:38:56;17.23;;;11.98;;
40290;SDS011;26000;48.304;13.626;2023-03-13T12:41:42;14.65;;;10.18;;
40290;SDS011;26000;48.304;13.626;2023-03-13T12:44:14;16.92;;;11.40;;
40290;SDS011;26000;48.304;13.626;2023-03-13T12:52:09;15.32;;;10.30;;
40290;SDS011;26000;48.304;13.626;2023-03-13T12:55:38;18.83;;;10.65;;
40290;SDS011;26000;48.304;13.626;2023-03-13T13:00:39;12.77;;;8.65;;
40290;SDS011;26000;48.304;13.626;2023-03-13T13:03:18;14.15;;;9.80;;
40290;SDS011;26000;48.304;13.626;2023-03-13T13:06:09;12.93;;;9.20;;
40290;SDS011;26000;48.304;13.626;2023-03-13T13:08:41;10.68;;;8.27;;
40290;SDS011;26000;48.304;13.626;2023-03-13T13:14:04;13.27;;;8.50;;
40290;SDS011;26000;48.304;13.626;2023-03-13T13:16:59;11.45;;;8.00;;
40290;SDS011;26000;48.304;13.626;2023-03-13T13:19:48;9.18;;;7.70;;
40290;SDS011;26000;48.304;13.626;2023-03-13T13:22:57;9.98;;;7.45;;
40290;SDS011;26000;48.304;13.626;2023-03-13T13:30:00;11.50;;;7.43;;
40290;SDS011;26000;48.304;13.626;2023-03-13T13:32:28;9.20;;;6.97;;
40290;SDS011;26000;48.304;13.626;2023-03-13T13:34:58;9.20;;;6.40;;
40290;SDS011;26000;48.304;13.626;2023-03-13T13:37:30;9.95;;;6.82;;
40290;SDS011;26000;48.304;13.626;2023-03-13T13:42:48;9.77;;;5.65;;
40290;SDS011;26000;48.304;13.626;2023-03-13T13:45:22;8.38;;;6.43;;
40290;SDS011;26000;48.304;13.626;2023-03-13T13:47:50;8.15;;;6.05;;
40290;SDS011;26000;48.304;13.626;2023-03-13T13:50:36;9.95;;;6.57;;
40290;SDS011;26000;48.304;13.626;2023-03-13T13:55:57;8.88;;;6.57;;
40290;SDS011;26000;48.304;13.626;2023-03-13T13:58:23;6.95;;;6.15;;
40290;SDS011;26000;48.304;13.626;2023-03-13T14:01:00;9.10;;;5.55;;
40290;SDS011;26000;48.304;13.626;2023-03-13T14:03:36;8.80;;;5.90;;
40290;SDS011;26000;48.304;13.626;2023-03-13T14:06:20;9.60;;;5.82;;
40290;SDS011;26000;48.304;13.626;2023-03-13T14:08:52;12.10;;;6.65;;
40290;SDS011;26000;48.304;13.626;2023-03-13T14:16:52;9.15;;;7.13;;
40290;SDS011;26000;48.304;13.626;2023-03-13T14:21:49;10.75;;;7.00;;
40290;SDS011;26000;48.304;13.626;2023-03-13T14:24:15;10.82;;;6.38;;
40290;SDS011;26000;48.304;13.626;2023-03-13T14:26:42;10.38;;;5.35;;
40290;SDS011;26000;48.304;13.626;2023-03-13T14:29:14;8.60;;;5.30;;
40290;SDS011;26000;48.304;13.626;2023-03-13T14:31:48;8.90;;;5.22;;
40290;SDS011;26000;48.304;13.626;2023-03-13T14:34:15;10.98;;;5.90;;
40290;SDS011;26000;48.304;13.626;2023-03-13T14:36:48;14.15;;;5.93;;
40290;SDS011;26000;48.304;13.626;2023-03-13T14:42:00;13.40;;;8.13;;
40290;SDS011;26000;48.304;13.626;2023-03-13T14:44:46;9.25;;;5.05;;
40290;SDS011;26000;48.304;13.626;2023-03-13T14:47:24;6.35;;;4.68;;
40290;SDS011;26000;48.304;13.626;2023-03-13T14:50:02;5.80;;;4.47;;
40290;SDS011;26000;48.304;13.626;2023-03-13T14:52:33;8.40;;;4.75;;
40290;SDS011;26000;48.304;13.626;2023-03-13T14:54:59;8.82;;;5.50;;
40290;SDS011;26000;48.304;13.626;2023-03-13T14:57:28;5.70;;;4.03;;
40290;SDS011;26000;48.304;13.626;2023-03-13T15:00:20;7.20;;;3.90;;
40290;SDS011;26000;48.304;13.626;2023-03-13T15:03:15;4.97;;;3.38;;
40290;SDS011;26000;48.304;13.626;2023-03-13T15:06:00;12.27;;;4.97;;
40290;SDS011;26000;48.304;13.626;2023-03-13T15:08:26;6.68;;;4.55;;
40290;SDS011;26000;48.304;13.626;2023-03-13T15:10:53;10.43;;;5.15;;
40290;SDS011;26000;48.304;13.626;2023-03-13T15:13:23;6.68;;;4.82;;
40290;SDS011;26000;48.304;13.626;2023-03-13T15:15:58;8.88;;;5.55;;
40290;SDS011;26000;48.304;13.626;2023-03-13T15:18:31;8.65;;;5.80;;
40290;SDS011;26000;48.304;13.626;2023-03-13T15:21:15;15.80;;;6.30;;
40290;SDS011;26000;48.304;13.626;2023-03-13T15:23:49;9.18;;;5.97;;
40290;SDS011;26000;48.304;13.626;2023-03-13T15:26:26;10.23;;;6.93;;
40290;SDS011;26000;48.304;13.626;2023-03-13T15:28:52;9.30;;;6.50;;
40290;SDS011;26000;48.304;13.626;2023-03-13T15:31:18;8.60;;;5.82;;
40290;SDS011;26000;48.304;13.626;2023-03-13T15:33:47;8.93;;;6.25;;
40290;SDS011;26000;48.304;13.626;2023-03-13T15:36:17;8.90;;;6.47;;
40290;SDS011;26000;48.304;13.626;2023-03-13T15:38:42;11.88;;;6.10;;
40290;SDS011;26000;48.304;13.626;2023-03-13T15:41:08;11.65;;;6.65;;
40290;SDS011;26000;48.304;13.626;2023-03-13T15:43:34;10.80;;;6.78;;
40290;SDS011;26000;48.304;13.626;2023-03-13T15:46:00;11.80;;;7.03;;
40290;SDS011;26000;48.304;13.626;2023-03-13T15:48:26;10.25;;;6.72;;
40290;SDS011;26000;48.304;13.626;2023-03-13T15:50:54;13.00;;;6.85;;
40290;SDS011;26000;48.304;13.626;2023-03-13T15:56:20;10.00;;;6.05;;
40290;SDS011;26000;48.304;13.626;2023-03-13T15:58:49;11.68;;;6.50;;
40290;SDS011;26000;48.304;13.626;2023-03-13T16:01:16;11.35;;;6.40;;